Terminal Aerodrome Forecast
Issued by NWS

Home | Current Version | Previous Version | Text Only | Print | Product List | Glossary On
Versions: 1 2 3 4 5 6 7 8 9 10 11 12 13 14 15 16 17 18
534
FTUS45 KTFX 270522
TAFHLN
TAF
KHLN 270522Z 2706/2806 28007KT 3SM -SN SCT015 OVC025
      TEMPO 2706/2709 3/4SM -SHSN BR BKN012
     FM270900 29008KT 6SM -SN SCT020 OVC035
      TEMPO 2709/2712 3SM -SN BR BKN020
     FM271600 27006KT P6SM SCT035 BKN060=

USA.gov is the U.S. government's official web portal to all federal, state and local government web resources and services.